createdAt,value
2018-04-26T00:00:42.110Z,78.55
2018-04-26T00:03:10.191Z,78.65
2018-04-26T00:05:38.286Z,78.64
2018-04-26T00:08:05.819Z,78.79
2018-04-26T00:10:34.067Z,78.92
2018-04-26T00:13:02.295Z,79.12
2018-04-26T00:15:29.819Z,79.08
2018-04-26T00:17:57.398Z,79.33
2018-04-26T00:20:24.982Z,79.34
2018-04-26T00:22:53.513Z,79.41
2018-04-26T00:25:21.070Z,79.50
2018-04-26T00:27:48.607Z,79.63
2018-04-26T00:30:16.171Z,79.67
2018-04-26T00:32:44.327Z,79.86
2018-04-26T00:35:12.351Z,79.74
2018-04-26T00:37:40.451Z,79.86
2018-04-26T00:40:08.633Z,79.92
2018-04-26T00:42:38.062Z,79.86
2018-04-26T00:45:05.611Z,79.88
2018-04-26T00:47:33.551Z,79.93
2018-04-26T00:50:01.095Z,80.01
2018-04-26T00:52:28.767Z,80.13
2018-04-26T00:54:56.337Z,80.16
2018-04-26T00:57:23.904Z,80.23
2018-04-26T00:59:51.439Z,80.37
2018-04-26T01:02:19.002Z,80.34
2018-04-26T01:04:47.499Z,80.52
2018-04-26T01:07:15.023Z,80.58
2018-04-26T01:09:42.552Z,80.66
2018-04-26T01:12:10.726Z,80.74
2018-04-26T01:14:38.912Z,80.67
2018-04-26T01:17:06.448Z,80.74
2018-04-26T01:19:33.967Z,80.63
2018-04-26T01:22:01.545Z,80.58
2018-04-26T01:24:29.210Z,80.60
2018-04-26T01:26:56.812Z,80.63
2018-04-26T01:29:24.423Z,80.63
2018-04-26T01:31:51.969Z,80.61
2018-04-26T01:34:19.982Z,80.68
2018-04-26T01:37:00.039Z,80.77
2018-04-26T01:39:27.635Z,80.78
2018-04-26T01:41:56.111Z,80.76
2018-04-26T01:44:24.034Z,80.66
2018-04-26T01:46:51.562Z,80.73
2018-04-26T01:49:19.838Z,80.54
2018-04-26T01:51:47.358Z,80.73
2018-04-26T01:54:14.923Z,80.64
2018-04-26T01:56:42.474Z,80.70
2018-04-26T01:59:09.995Z,80.68
2018-04-26T02:01:37.517Z,80.66
2018-04-26T02:04:05.065Z,80.74
2018-04-26T02:06:33.252Z,80.73
2018-04-26T02:09:01.397Z,80.68
2018-04-26T02:11:29.652Z,80.57
2018-04-26T02:13:58.206Z,80.70
2018-04-26T02:16:25.739Z,80.71
2018-04-26T02:18:53.291Z,80.83
2018-04-26T02:21:20.863Z,80.85
2018-04-26T02:23:48.398Z,80.82
2018-04-26T02:26:16.115Z,80.85
2018-04-26T02:28:43.690Z,80.92
2018-04-26T02:31:11.216Z,80.85
2018-04-26T02:33:39.714Z,80.96
2018-04-26T02:36:07.927Z,81.00
2018-04-26T02:38:35.474Z,81.06
2018-04-26T02:41:04.000Z,81.09
2018-04-26T02:43:32.264Z,81.02
2018-04-26T02:45:59.834Z,81.02
2018-04-26T02:48:28.309Z,81.18
2018-04-26T02:50:56.427Z,80.93
2018-04-26T02:53:23.981Z,81.08
2018-04-26T02:55:51.515Z,80.97
2018-04-26T02:58:19.078Z,80.84
2018-04-26T03:00:46.613Z,80.56
2018-04-26T03:03:14.259Z,80.55
2018-04-26T03:05:42.427Z,80.53
2018-04-26T03:08:10.029Z,80.49
2018-04-26T03:10:37.521Z,80.63
2018-04-26T03:13:06.350Z,80.59
2018-04-26T03:15:33.878Z,80.53
2018-04-26T03:18:01.403Z,80.52
2018-04-26T03:20:29.059Z,80.31
2018-04-26T03:22:56.581Z,80.25
2018-04-26T03:25:24.130Z,80.48
2018-04-26T03:27:51.690Z,80.62
2018-04-26T03:30:19.820Z,80.66
2018-04-26T03:32:48.079Z,80.60
2018-04-26T03:35:16.123Z,80.87
2018-04-26T03:37:44.416Z,80.82
2018-04-26T03:40:12.062Z,80.41
2018-04-26T03:42:39.590Z,79.86
2018-04-26T03:45:07.484Z,79.44
2018-04-26T03:47:35.855Z,78.71
2018-04-26T03:50:03.927Z,78.01
2018-04-26T03:52:32.081Z,77.60
2018-04-26T03:54:59.677Z,77.41
2018-04-26T03:57:27.242Z,77.06
2018-04-26T04:00:06.681Z,77.00
2018-04-26T04:02:46.297Z,77.08
2018-04-26T04:05:26.246Z,77.03
2018-04-26T04:07:54.642Z,77.15
2018-04-26T04:10:22.984Z,77.08
2018-04-26T04:12:52.354Z,77.11
2018-04-26T04:15:19.881Z,77.20
2018-04-26T04:17:47.407Z,77.21
2018-04-26T04:20:15.857Z,77.08
2018-04-26T04:22:43.366Z,77.01
2018-04-26T04:25:10.954Z,76.99
2018-04-26T04:27:39.837Z,76.95
2018-04-26T04:30:07.396Z,76.81
2018-04-26T04:32:34.979Z,76.81
2018-04-26T04:35:03.071Z,76.69
2018-04-26T04:37:31.263Z,76.67
2018-04-26T04:39:59.007Z,76.57
2018-04-26T04:42:26.682Z,76.41
2018-04-26T04:44:54.843Z,76.30
2018-04-26T04:47:23.203Z,76.22
2018-04-26T04:49:51.519Z,75.93
2018-04-26T04:52:19.058Z,75.90
2018-04-26T04:54:46.629Z,75.84
2018-04-26T04:57:14.198Z,75.77
2018-04-26T04:59:41.732Z,75.50
2018-04-26T05:02:10.206Z,75.29
2018-04-26T05:04:38.234Z,75.30
2018-04-26T05:07:05.757Z,75.15
2018-04-26T05:09:33.288Z,75.36
2018-04-26T05:12:01.716Z,75.24
2018-04-26T05:14:30.194Z,75.19
2018-04-26T05:16:57.819Z,75.05
2018-04-26T05:19:25.341Z,74.85
2018-04-26T05:21:52.953Z,74.87
2018-04-26T05:24:20.522Z,74.92
2018-04-26T05:26:48.983Z,74.48
2018-04-26T05:29:16.530Z,74.32
2018-04-26T05:31:44.075Z,74.02
2018-04-26T05:34:12.497Z,73.52
2018-04-26T05:36:40.459Z,73.26
2018-04-26T05:39:08.758Z,72.81
2018-04-26T05:41:36.308Z,72.68
2018-04-26T05:44:04.503Z,72.37
2018-04-26T05:46:32.038Z,71.81
2018-04-26T05:49:00.226Z,70.72
2018-04-26T05:51:28.968Z,69.99
2018-04-26T05:53:56.486Z,70.41
2018-04-26T05:56:24.019Z,69.82
2018-04-26T05:58:51.567Z,69.53
2018-04-26T06:01:19.102Z,69.53
2018-04-26T06:03:46.762Z,70.01
2018-04-26T06:06:15.519Z,69.58
2018-04-26T06:08:44.309Z,70.06
2018-04-26T06:11:11.845Z,69.92
2018-04-26T06:13:40.338Z,68.68
2018-04-26T06:16:07.899Z,68.57
2018-04-26T06:18:35.444Z,69.00
2018-04-26T06:21:03.017Z,69.05
2018-04-26T06:23:31.138Z,68.45
2018-04-26T06:25:58.827Z,67.72
2018-04-26T06:28:26.348Z,66.77
2018-04-26T06:30:53.940Z,67.20
2018-04-26T06:33:21.466Z,67.18
2018-04-26T06:35:49.774Z,66.83
2018-04-26T06:38:17.304Z,67.41
2018-04-26T06:40:44.872Z,68.02
2018-04-26T06:43:13.288Z,68.15
2018-04-26T06:45:40.829Z,67.79
2018-04-26T06:48:09.313Z,67.58
2018-04-26T06:50:37.436Z,67.87
2018-04-26T06:53:04.991Z,67.57
2018-04-26T06:55:33.151Z,67.17
2018-04-26T06:58:00.662Z,66.41
2018-04-26T07:00:28.456Z,66.20
2018-04-26T07:02:56.193Z,66.03
2018-04-26T07:05:24.671Z,65.82
2018-04-26T07:07:52.195Z,66.47
2018-04-26T07:10:19.722Z,66.23
2018-04-26T07:12:47.977Z,64.82
2018-04-26T07:15:16.830Z,63.67
2018-04-26T07:17:44.363Z,62.45
2018-04-26T07:20:12.619Z,62.26
2018-04-26T07:22:41.062Z,61.84
2018-04-26T07:25:08.704Z,61.30
2018-04-26T07:27:36.246Z,60.87
2018-04-26T07:30:03.839Z,60.81
2018-04-26T07:32:31.365Z,59.92
2018-04-26T07:34:59.611Z,57.78
2018-04-26T07:37:28.496Z,58.35
2018-04-26T07:39:56.056Z,58.56
2018-04-26T07:42:23.575Z,59.19
2018-04-26T07:44:51.576Z,56.28
2018-04-26T07:47:19.620Z,56.88
2018-04-26T07:49:47.771Z,57.06
2018-04-26T07:52:15.310Z,57.43
2018-04-26T07:54:42.844Z,57.77
2018-04-26T07:57:10.406Z,56.79
2018-04-26T07:59:38.591Z,56.33
2018-04-26T08:02:06.125Z,56.25
2018-04-26T08:04:34.125Z,55.28
2018-04-26T08:07:02.170Z,55.81
2018-04-26T08:09:29.845Z,56.04
2018-04-26T08:11:58.623Z,56.15
2018-04-26T08:14:26.835Z,55.85
2018-04-26T08:16:54.361Z,56.09
2018-04-26T08:19:22.564Z,55.14
2018-04-26T08:21:50.094Z,54.51
2018-04-26T08:24:17.615Z,54.13
2018-04-26T08:26:45.185Z,54.57
2018-04-26T08:29:12.710Z,54.75
2018-04-26T08:31:40.246Z,54.70
2018-04-26T08:34:08.769Z,54.02
2018-04-26T08:36:37.194Z,52.48
2018-04-26T08:39:05.515Z,52.87
2018-04-26T08:41:33.059Z,52.84
2018-04-26T08:44:02.061Z,52.91
2018-04-26T08:46:29.709Z,52.88
2018-04-26T08:48:57.979Z,52.46
2018-04-26T08:51:26.546Z,51.34
2018-04-26T08:53:54.082Z,51.54
2018-04-26T08:56:21.624Z,52.02
2018-04-26T08:58:49.182Z,52.27
2018-04-26T09:01:17.396Z,52.53
2018-04-26T09:03:44.945Z,51.16
2018-04-26T09:06:13.199Z,51.68
2018-04-26T09:08:41.071Z,51.12
2018-04-26T09:11:08.711Z,51.16
2018-04-26T09:13:36.802Z,50.63
2018-04-26T09:16:05.458Z,51.00
2018-04-26T09:18:33.038Z,51.21
2018-04-26T09:21:00.569Z,50.87
2018-04-26T09:23:28.420Z,50.20
2018-04-26T09:25:55.941Z,50.52
2018-04-26T09:28:23.718Z,49.98
2018-04-26T09:30:51.299Z,48.94
2018-04-26T09:33:18.875Z,49.29
2018-04-26T09:35:47.032Z,50.28
2018-04-26T09:38:14.562Z,49.96
2018-04-26T09:40:42.236Z,49.74
2018-04-26T09:43:10.623Z,49.68
2018-04-26T09:45:38.249Z,49.22
2018-04-26T09:48:06.519Z,47.88
2018-04-26T09:50:35.275Z,48.45
2018-04-26T09:53:02.826Z,48.43
2018-04-26T09:55:30.565Z,48.33
2018-04-26T09:57:58.155Z,48.41
2018-04-26T10:00:28.833Z,48.75
2018-04-26T10:02:57.176Z,48.49
2018-04-26T10:05:31.307Z,48.07
2018-04-26T10:07:58.991Z,47.53
2018-04-26T10:10:26.622Z,47.83
2018-04-26T10:12:54.943Z,48.07
2018-04-26T10:15:22.507Z,48.84
2018-04-26T10:17:50.040Z,48.70
2018-04-26T10:20:17.616Z,48.37
2018-04-26T10:22:45.151Z,48.83
2018-04-26T10:25:12.691Z,48.58
2018-04-26T10:27:40.256Z,48.73
2018-04-26T10:30:07.791Z,48.07
2018-04-26T10:32:35.364Z,47.06
2018-04-26T10:35:03.921Z,46.95
2018-04-26T10:37:32.303Z,46.19
2018-04-26T10:42:36.768Z,45.33
2018-04-26T10:45:05.011Z,45.72
2018-04-26T10:47:33.186Z,46.60
2018-04-26T10:50:01.309Z,46.39
2018-04-26T10:52:30.613Z,46.58
2018-04-26T10:54:59.428Z,47.04
2018-04-26T10:57:27.093Z,46.71
2018-04-26T10:59:54.677Z,47.36
2018-04-26T11:02:22.210Z,47.21
2018-04-26T11:04:50.798Z,47.65
2018-04-26T11:07:18.319Z,47.36
2018-04-26T11:09:45.854Z,48.08
2018-04-26T11:12:14.099Z,47.40
2018-04-26T11:14:42.159Z,47.02
2018-04-26T11:17:09.905Z,47.17
2018-04-26T11:19:37.428Z,46.56
2018-04-26T11:22:05.032Z,46.47
2018-04-26T11:24:32.587Z,46.38
2018-04-26T11:27:00.107Z,45.65
2018-04-26T11:29:27.673Z,46.13
2018-04-26T11:31:55.244Z,46.49
2018-04-26T11:34:23.635Z,46.78
2018-04-26T11:36:51.943Z,47.69
2018-04-26T11:39:19.484Z,47.98
2018-04-26T11:41:47.892Z,47.26
2018-04-26T11:44:15.978Z,47.25
2018-04-26T11:46:43.622Z,47.55
2018-04-26T11:49:11.700Z,46.97
2018-04-26T11:51:40.103Z,47.71
2018-04-26T11:54:07.750Z,47.21
2018-04-26T11:56:35.287Z,46.87
2018-04-26T11:59:02.866Z,46.61
2018-04-26T12:01:30.435Z,46.44
2018-04-26T12:03:58.102Z,45.89
2018-04-26T12:06:26.222Z,45.57
2018-04-26T12:08:54.474Z,45.43
2018-04-26T12:11:22.626Z,45.07
2018-04-26T12:13:50.975Z,45.40
2018-04-26T12:16:20.007Z,45.12
2018-04-26T12:18:47.523Z,45.16
2018-04-26T12:21:15.086Z,45.10
2018-04-26T12:23:42.663Z,44.09
2018-04-26T12:26:10.191Z,43.40
2018-04-26T12:28:37.979Z,43.73
2018-04-26T12:31:05.514Z,44.16
2018-04-26T12:33:34.095Z,43.89
2018-04-26T12:36:02.630Z,44.10
2018-04-26T12:38:30.715Z,44.19
2018-04-26T12:40:58.707Z,44.48
2018-04-26T12:43:27.090Z,44.25
2018-04-26T12:45:54.660Z,44.35
2018-04-26T12:48:22.680Z,44.49
2018-04-26T12:50:50.710Z,42.84
2018-04-26T12:53:18.249Z,42.78
2018-04-26T12:55:45.775Z,43.17
2018-04-26T12:58:13.440Z,42.73
2018-04-26T13:00:40.992Z,43.58
2018-04-26T13:03:08.595Z,43.16
2018-04-26T13:05:37.087Z,42.37
2018-04-26T13:08:04.713Z,42.09
2018-04-26T13:10:32.246Z,41.82
2018-04-26T13:13:00.399Z,42.17
2018-04-26T13:15:28.047Z,41.92
2018-04-26T13:17:55.567Z,41.14
2018-04-26T13:20:23.273Z,41.70
2018-04-26T13:22:50.882Z,42.58
2018-04-26T13:25:18.484Z,42.29
2018-04-26T13:27:46.071Z,42.13
2018-04-26T13:30:13.611Z,42.23
2018-04-26T13:32:41.141Z,41.08
2018-04-26T13:35:09.174Z,41.35
2018-04-26T13:37:37.095Z,40.74
2018-04-26T13:40:04.751Z,40.96
2018-04-26T13:42:32.286Z,40.46
2018-04-26T13:45:00.288Z,39.97
2018-04-26T13:47:28.563Z,40.71
2018-04-26T13:49:57.044Z,39.42
2018-04-26T13:52:24.602Z,39.17
2018-04-26T13:54:52.148Z,39.76
2018-04-26T13:57:19.730Z,39.96
2018-04-26T13:59:47.279Z,38.41
2018-04-26T14:02:14.840Z,37.55
2018-04-26T14:04:43.243Z,37.55
2018-04-26T14:07:10.778Z,37.59
2018-04-26T14:09:38.469Z,36.42
2018-04-26T14:12:06.780Z,37.52
2018-04-26T14:14:34.895Z,37.11
2018-04-26T14:17:02.433Z,38.20
2018-04-26T14:19:30.111Z,38.97
2018-04-26T14:21:58.312Z,38.05
2018-04-26T14:24:25.851Z,37.53
2018-04-26T14:26:53.419Z,37.18
2018-04-26T14:29:21.159Z,36.77
2018-04-26T14:31:48.625Z,37.22
2018-04-26T14:34:16.749Z,37.89
2018-04-26T14:36:45.178Z,38.01
2018-04-26T14:39:12.707Z,37.11
2018-04-26T14:41:41.255Z,37.40
2018-04-26T14:44:09.547Z,38.11
2018-04-26T14:46:38.492Z,37.90
2018-04-26T14:49:06.727Z,38.37
2018-04-26T14:51:34.738Z,38.25
2018-04-26T14:54:02.283Z,38.47
2018-04-26T14:56:29.851Z,38.52
2018-04-26T14:58:57.562Z,37.75
2018-04-26T15:01:25.974Z,37.25
2018-04-26T15:03:53.494Z,37.86
2018-04-26T15:06:21.787Z,37.34
2018-04-26T15:08:49.320Z,37.52
2018-04-26T15:11:16.841Z,37.59
2018-04-26T15:13:44.790Z,38.29
2018-04-26T15:16:12.315Z,38.26
2018-04-26T15:18:39.842Z,38.61
2018-04-26T15:21:08.128Z,37.99
2018-04-26T15:23:35.807Z,39.25
2018-04-26T15:26:03.328Z,39.15
2018-04-26T15:28:31.233Z,38.63
2018-04-26T15:30:59.028Z,38.98
2018-04-26T15:33:26.565Z,38.04
2018-04-26T15:35:55.024Z,37.98
2018-04-26T15:38:22.589Z,38.17
2018-04-26T15:40:50.151Z,37.69
2018-04-26T15:43:18.823Z,38.01
2018-04-26T15:49:18.143Z,35.97
2018-04-26T15:51:45.683Z,34.76
2018-04-26T15:54:25.102Z,34.51
2018-04-26T15:57:04.409Z,34.71
2018-04-26T15:59:55.120Z,34.60
2018-04-26T16:03:02.677Z,34.42
2018-04-26T16:05:42.372Z,34.97
2018-04-26T16:08:28.418Z,35.40
2018-04-26T16:11:13.359Z,36.35
2018-04-26T16:13:59.014Z,37.48
2018-04-26T16:16:44.102Z,38.55
2018-04-26T16:19:34.022Z,38.81
2018-04-26T16:22:20.254Z,38.45
2018-04-26T16:24:59.562Z,37.97
2018-04-26T16:27:43.929Z,38.55
2018-04-26T16:30:23.395Z,39.49
2018-04-26T16:33:05.281Z,39.40
2018-04-26T16:35:45.397Z,39.04
2018-04-26T16:41:22.867Z,40.60
2018-04-26T16:43:51.266Z,41.51
2018-04-26T16:46:19.274Z,42.48
2018-04-26T16:48:47.183Z,43.36
2018-04-26T16:51:15.314Z,43.90
2018-04-26T16:53:42.873Z,44.52
2018-04-26T16:56:11.214Z,44.73
2018-04-26T16:58:38.779Z,45.55
2018-04-26T17:01:06.328Z,45.56
2018-04-26T17:03:33.899Z,46.19
2018-04-26T17:06:02.179Z,46.75
2018-04-26T17:08:29.754Z,47.20
2018-04-26T17:10:57.280Z,48.30
2018-04-26T17:13:25.668Z,49.48
2018-04-26T17:15:53.207Z,50.62
2018-04-26T17:18:20.723Z,51.71
2018-04-26T17:20:48.843Z,54.72
2018-04-26T17:23:16.408Z,57.68
2018-04-26T17:25:43.967Z,62.08
2018-04-26T17:28:11.612Z,63.79
2018-04-26T17:30:39.290Z,65.03
2018-04-26T17:33:07.718Z,65.65
2018-04-26T17:35:35.831Z,66.66
2018-04-26T17:38:03.355Z,66.22
2018-04-26T17:40:30.879Z,66.17
2018-04-26T17:42:59.114Z,66.12
2018-04-26T17:45:26.995Z,66.29
2018-04-26T17:47:55.325Z,67.11
2018-04-26T17:50:23.337Z,66.76
2018-04-26T17:52:51.530Z,66.44
2018-04-26T17:55:19.458Z,66.14
2018-04-26T17:57:46.989Z,65.64
2018-04-26T18:00:14.513Z,65.36
2018-04-26T18:02:42.067Z,66.15
2018-04-26T18:05:10.111Z,66.42
2018-04-26T18:07:37.659Z,66.70
2018-04-26T18:10:05.256Z,66.79
2018-04-26T18:12:33.367Z,65.96
2018-04-26T18:15:01.716Z,66.44
2018-04-26T18:17:29.290Z,66.61
2018-04-26T18:20:08.148Z,66.46
2018-04-26T18:22:25.463Z,65.85
2018-04-26T18:24:53.596Z,66.33
2018-04-26T18:27:21.117Z,66.01
2018-04-26T18:29:48.734Z,66.80
2018-04-26T18:32:16.951Z,66.86
2018-04-26T18:34:45.367Z,66.12
2018-04-26T18:37:12.897Z,65.87
2018-04-26T18:39:41.237Z,66.12
2018-04-26T18:42:08.752Z,65.75
2018-04-26T18:44:37.075Z,66.31
2018-04-26T18:47:05.582Z,66.17
2018-04-26T18:49:33.760Z,65.64
2018-04-26T18:52:01.723Z,66.04
2018-04-26T18:54:29.356Z,66.21
2018-04-26T18:56:57.014Z,66.36
2018-04-26T18:59:24.498Z,66.10
2018-04-26T19:01:52.054Z,66.22
2018-04-26T19:04:19.592Z,66.33
2018-04-26T19:06:47.646Z,66.73
2018-04-26T19:09:15.917Z,66.87
2018-04-26T19:11:43.755Z,66.48
2018-04-26T19:14:12.076Z,66.50
2018-04-26T19:16:40.214Z,66.02
2018-04-26T19:19:07.855Z,65.93
2018-04-26T19:21:35.919Z,66.01
2018-04-26T19:24:03.458Z,65.91
2018-04-26T19:26:30.993Z,65.96
2018-04-26T19:28:58.627Z,65.95
2018-04-26T19:31:26.153Z,65.99
2018-04-26T19:33:54.415Z,66.29
2018-04-26T19:36:21.941Z,66.17
2018-04-26T19:38:50.107Z,66.54
2018-04-26T19:41:17.628Z,66.48
2018-04-26T19:43:45.873Z,66.67
2018-04-26T19:46:13.806Z,67.08
2018-04-26T19:48:41.870Z,67.12
2018-04-26T19:51:10.271Z,67.41
2018-04-26T19:53:38.035Z,67.86
2018-04-26T19:56:05.570Z,67.79
2018-04-26T19:58:33.155Z,68.08
2018-04-26T20:01:00.678Z,68.12
2018-04-26T20:03:28.558Z,68.56
2018-04-26T20:05:56.675Z,68.45
2018-04-26T20:08:25.035Z,68.59
2018-04-26T20:10:52.551Z,68.76
2018-04-26T20:13:20.499Z,68.76
2018-04-26T20:15:48.108Z,69.18
2018-04-26T20:18:15.636Z,69.25
2018-04-26T20:20:43.815Z,69.43
2018-04-26T20:23:11.347Z,69.56
2018-04-26T20:25:38.919Z,69.77
2018-04-26T20:28:06.490Z,69.89
2018-04-26T20:30:34.080Z,69.89
2018-04-26T20:33:02.566Z,70.29
2018-04-26T20:35:30.100Z,70.59
2018-04-26T20:37:57.639Z,70.85
2018-04-26T20:40:25.250Z,70.95
2018-04-26T20:42:52.784Z,71.13
2018-04-26T20:45:21.247Z,71.25
2018-04-26T20:47:49.363Z,71.23
2018-04-26T20:50:17.661Z,71.24
2018-04-26T20:52:45.202Z,71.23
2018-04-26T20:55:12.726Z,71.26
2018-04-26T20:57:40.295Z,71.29
2018-04-26T21:00:07.923Z,71.17
2018-04-26T21:02:35.472Z,71.39
2018-04-26T21:05:03.682Z,71.36
2018-04-26T21:07:31.774Z,71.29
2018-04-26T21:09:59.371Z,71.45
2018-04-26T21:12:27.317Z,71.54
2018-04-26T21:14:55.373Z,71.62
2018-04-26T21:17:22.893Z,71.62
2018-04-26T21:19:51.196Z,71.61
2018-04-26T21:22:19.575Z,71.83
2018-04-26T21:24:47.092Z,71.89
2018-04-26T21:27:14.614Z,71.97
2018-04-26T21:29:42.607Z,72.19
2018-04-26T21:32:10.959Z,72.19
2018-04-26T21:34:38.579Z,72.21
2018-04-26T21:37:06.109Z,72.04
2018-04-26T21:39:34.362Z,72.22
2018-04-26T21:42:01.917Z,72.23
2018-04-26T21:44:30.283Z,72.34
2018-04-26T21:46:58.378Z,72.61
2018-04-26T21:49:26.037Z,72.48
2018-04-26T21:51:59.225Z,72.54
2018-04-26T21:54:32.211Z,72.63
2018-04-26T21:57:05.371Z,72.47
2018-04-26T21:59:38.510Z,72.51
2018-04-26T22:02:12.590Z,72.62
2018-04-26T22:04:46.471Z,72.68
2018-04-26T22:07:14.015Z,72.82
2018-04-26T22:09:41.550Z,72.92
2018-04-26T22:12:09.795Z,73.02
2018-04-26T22:14:38.169Z,73.12
2018-04-26T22:17:05.716Z,73.04
2018-04-26T22:19:34.327Z,73.02
2018-04-26T22:22:01.888Z,72.91
2018-04-26T22:24:30.288Z,72.67
2018-04-26T22:26:57.955Z,72.78
2018-04-26T22:29:25.518Z,72.58
2018-04-26T22:31:53.118Z,72.35
2018-04-26T22:34:21.754Z,72.00
2018-04-26T22:36:49.288Z,71.63
2018-04-26T22:39:16.818Z,71.79
2018-04-26T22:41:45.215Z,71.54
2018-04-26T22:44:13.239Z,71.58
2018-04-26T22:46:40.776Z,71.57
2018-04-26T22:49:08.762Z,71.44
2018-04-26T22:51:36.941Z,71.18
2018-04-26T22:54:04.466Z,70.97
2018-04-26T22:56:31.982Z,70.97
2018-04-26T22:58:59.666Z,70.86
2018-04-26T23:01:27.312Z,70.92
2018-04-26T23:03:55.614Z,70.66
2018-04-26T23:06:23.784Z,70.42
2018-04-26T23:08:51.967Z,70.57
2018-04-26T23:11:20.033Z,70.43
2018-04-26T23:13:48.622Z,70.52
2018-04-26T23:16:16.144Z,70.66
2018-04-26T23:18:43.666Z,70.44
2018-04-26T23:21:11.876Z,70.18
2018-04-26T23:23:39.454Z,70.02
2018-04-26T23:26:06.986Z,69.76
2018-04-26T23:28:34.551Z,69.56
2018-04-26T23:31:02.074Z,69.67
2018-04-26T23:33:30.279Z,69.29
2018-04-26T23:35:57.914Z,69.31
2018-04-26T23:38:25.432Z,68.91
2018-04-26T23:40:53.641Z,68.97
2018-04-26T23:43:21.974Z,68.81
2018-04-26T23:45:49.502Z,68.53
2018-04-26T23:48:17.684Z,68.59
2018-04-26T23:50:45.939Z,68.42
2018-04-26T23:53:13.460Z,68.36
2018-04-26T23:55:40.999Z,68.65
2018-04-26T23:58:08.579Z,68.71
